sensor_id;sensor_type;location;lat;lon;timestamp;P1;durP1;ratioP1;P2;durP2;ratioP2
52974;SDS011;38839;45.186;5.720;2023-08-24T00:00:54;6.68;;;2.55;;
52974;SDS011;38839;45.186;5.720;2023-08-24T00:03:20;4.22;;;2.40;;
52974;SDS011;38839;45.186;5.720;2023-08-24T00:05:48;6.07;;;2.60;;
52974;SDS011;38839;45.186;5.720;2023-08-24T00:08:14;6.90;;;2.53;;
52974;SDS011;38839;45.186;5.720;2023-08-24T00:10:39;7.53;;;2.72;;
52974;SDS011;38839;45.186;5.720;2023-08-24T00:13:08;4.57;;;2.65;;
52974;SDS011;38839;45.186;5.720;2023-08-24T00:15:34;4.38;;;2.45;;
52974;SDS011;38839;45.186;5.720;2023-08-24T00:18:00;5.68;;;3.08;;
52974;SDS011;38839;45.186;5.720;2023-08-24T00:20:26;5.05;;;2.83;;
52974;SDS011;38839;45.186;5.720;2023-08-24T00:22:52;6.32;;;2.72;;
52974;SDS011;38839;45.186;5.720;2023-08-24T00:25:18;6.38;;;2.58;;
52974;SDS011;38839;45.186;5.720;2023-08-24T00:27:43;7.10;;;2.90;;
52974;SDS011;38839;45.186;5.720;2023-08-24T00:30:09;7.72;;;2.72;;
52974;SDS011;38839;45.186;5.720;2023-08-24T00:32:36;5.22;;;2.70;;
52974;SDS011;38839;45.186;5.720;2023-08-24T00:35:02;6.55;;;2.95;;
52974;SDS011;38839;45.186;5.720;2023-08-24T00:37:31;8.40;;;2.90;;
52974;SDS011;38839;45.186;5.720;2023-08-24T00:39:59;5.43;;;2.63;;
52974;SDS011;38839;45.186;5.720;2023-08-24T00:42:29;6.40;;;2.30;;
52974;SDS011;38839;45.186;5.720;2023-08-24T00:44:55;4.82;;;3.00;;
52974;SDS011;38839;45.186;5.720;2023-08-24T00:47:20;7.07;;;2.50;;
52974;SDS011;38839;45.186;5.720;2023-08-24T00:49:46;7.63;;;2.80;;
52974;SDS011;38839;45.186;5.720;2023-08-24T00:52:12;7.82;;;2.53;;
52974;SDS011;38839;45.186;5.720;2023-08-24T00:54:38;3.63;;;2.50;;
52974;SDS011;38839;45.186;5.720;2023-08-24T00:57:04;7.85;;;3.05;;
52974;SDS011;38839;45.186;5.720;2023-08-24T00:59:30;5.35;;;2.67;;
52974;SDS011;38839;45.186;5.720;2023-08-24T01:01:57;7.10;;;2.67;;
52974;SDS011;38839;45.186;5.720;2023-08-24T01:04:24;5.40;;;2.47;;
52974;SDS011;38839;45.186;5.720;2023-08-24T01:06:49;4.57;;;2.50;;
52974;SDS011;38839;45.186;5.720;2023-08-24T01:09:16;4.35;;;2.53;;
52974;SDS011;38839;45.186;5.720;2023-08-24T01:17:04;6.18;;;2.67;;
52974;SDS011;38839;45.186;5.720;2023-08-24T01:19:41;7.00;;;2.60;;
52974;SDS011;38839;45.186;5.720;2023-08-24T01:22:23;7.63;;;2.83;;
52974;SDS011;38839;45.186;5.720;2023-08-24T01:27:24;8.02;;;3.00;;
52974;SDS011;38839;45.186;5.720;2023-08-24T01:29:50;6.80;;;2.50;;
52974;SDS011;38839;45.186;5.720;2023-08-24T01:32:17;11.23;;;2.85;;
52974;SDS011;38839;45.186;5.720;2023-08-24T01:34:43;3.85;;;2.45;;
52974;SDS011;38839;45.186;5.720;2023-08-24T01:37:08;5.07;;;3.15;;
52974;SDS011;38839;45.186;5.720;2023-08-24T01:39:46;7.78;;;2.83;;
52974;SDS011;38839;45.186;5.720;2023-08-24T01:42:20;6.65;;;2.72;;
52974;SDS011;38839;45.186;5.720;2023-08-24T01:44:52;6.93;;;2.70;;
52974;SDS011;38839;45.186;5.720;2023-08-24T01:47:21;7.45;;;2.70;;
52974;SDS011;38839;45.186;5.720;2023-08-24T01:49:48;5.32;;;2.75;;
52974;SDS011;38839;45.186;5.720;2023-08-24T01:52:13;6.38;;;2.78;;
52974;SDS011;38839;45.186;5.720;2023-08-24T01:54:39;5.13;;;2.53;;
52974;SDS011;38839;45.186;5.720;2023-08-24T01:57:05;6.90;;;2.42;;
52974;SDS011;38839;45.186;5.720;2023-08-24T01:59:31;6.25;;;3.00;;
52974;SDS011;38839;45.186;5.720;2023-08-24T02:01:57;7.15;;;2.50;;
52974;SDS011;38839;45.186;5.720;2023-08-24T02:04:22;5.18;;;2.50;;
52974;SDS011;38839;45.186;5.720;2023-08-24T02:06:48;4.18;;;2.30;;
52974;SDS011;38839;45.186;5.720;2023-08-24T02:09:13;6.22;;;2.47;;
52974;SDS011;38839;45.186;5.720;2023-08-24T02:11:39;6.07;;;2.65;;
52974;SDS011;38839;45.186;5.720;2023-08-24T02:14:04;7.43;;;3.35;;
52974;SDS011;38839;45.186;5.720;2023-08-24T02:16:29;4.50;;;2.28;;
52974;SDS011;38839;45.186;5.720;2023-08-24T02:18:55;8.95;;;3.00;;
52974;SDS011;38839;45.186;5.720;2023-08-24T02:21:20;6.35;;;2.67;;
52974;SDS011;38839;45.186;5.720;2023-08-24T02:23:46;7.93;;;3.17;;
52974;SDS011;38839;45.186;5.720;2023-08-24T02:26:12;4.55;;;2.65;;
52974;SDS011;38839;45.186;5.720;2023-08-24T02:28:37;7.15;;;2.90;;
52974;SDS011;38839;45.186;5.720;2023-08-24T02:31:03;6.57;;;3.05;;
52974;SDS011;38839;45.186;5.720;2023-08-24T02:33:29;5.88;;;2.33;;
52974;SDS011;38839;45.186;5.720;2023-08-24T02:35:55;5.63;;;2.65;;
52974;SDS011;38839;45.186;5.720;2023-08-24T02:38:20;11.48;;;3.38;;
52974;SDS011;38839;45.186;5.720;2023-08-24T02:40:45;6.43;;;2.83;;
52974;SDS011;38839;45.186;5.720;2023-08-24T02:43:11;5.78;;;2.75;;
52974;SDS011;38839;45.186;5.720;2023-08-24T02:45:37;5.93;;;2.80;;
52974;SDS011;38839;45.186;5.720;2023-08-24T02:48:02;5.97;;;3.03;;
52974;SDS011;38839;45.186;5.720;2023-08-24T02:50:28;8.63;;;3.70;;
52974;SDS011;38839;45.186;5.720;2023-08-24T02:52:54;5.18;;;2.95;;
52974;SDS011;38839;45.186;5.720;2023-08-24T02:55:19;6.47;;;3.20;;
52974;SDS011;38839;45.186;5.720;2023-08-24T02:57:45;10.52;;;3.58;;
52974;SDS011;38839;45.186;5.720;2023-08-24T03:00:10;9.20;;;3.10;;
52974;SDS011;38839;45.186;5.720;2023-08-24T03:02:38;5.15;;;3.15;;
52974;SDS011;38839;45.186;5.720;2023-08-24T03:05:04;7.28;;;3.10;;
52974;SDS011;38839;45.186;5.720;2023-08-24T03:07:30;5.55;;;3.05;;
52974;SDS011;38839;45.186;5.720;2023-08-24T03:09:55;4.85;;;2.85;;
52974;SDS011;38839;45.186;5.720;2023-08-24T03:12:21;7.60;;;3.17;;
52974;SDS011;38839;45.186;5.720;2023-08-24T03:14:46;6.35;;;2.95;;
52974;SDS011;38839;45.186;5.720;2023-08-24T03:17:12;9.02;;;3.03;;
52974;SDS011;38839;45.186;5.720;2023-08-24T03:19:37;6.68;;;3.00;;
52974;SDS011;38839;45.186;5.720;2023-08-24T03:22:02;6.20;;;2.83;;
52974;SDS011;38839;45.186;5.720;2023-08-24T03:24:28;7.18;;;3.40;;
52974;SDS011;38839;45.186;5.720;2023-08-24T03:26:53;5.70;;;3.15;;
52974;SDS011;38839;45.186;5.720;2023-08-24T03:29:19;5.43;;;2.88;;
52974;SDS011;38839;45.186;5.720;2023-08-24T03:31:44;8.95;;;3.50;;
52974;SDS011;38839;45.186;5.720;2023-08-24T03:34:10;6.95;;;2.75;;
52974;SDS011;38839;45.186;5.720;2023-08-24T03:36:35;6.78;;;2.90;;
52974;SDS011;38839;45.186;5.720;2023-08-24T03:39:00;9.57;;;3.00;;
52974;SDS011;38839;45.186;5.720;2023-08-24T03:41:26;5.18;;;2.85;;
52974;SDS011;38839;45.186;5.720;2023-08-24T03:43:52;5.18;;;3.08;;
52974;SDS011;38839;45.186;5.720;2023-08-24T03:46:17;6.82;;;3.00;;
52974;SDS011;38839;45.186;5.720;2023-08-24T03:48:42;5.25;;;2.58;;
52974;SDS011;38839;45.186;5.720;2023-08-24T03:51:09;8.80;;;2.90;;
52974;SDS011;38839;45.186;5.720;2023-08-24T03:53:34;8.68;;;3.30;;
52974;SDS011;38839;45.186;5.720;2023-08-24T03:56:00;5.53;;;3.03;;
52974;SDS011;38839;45.186;5.720;2023-08-24T03:58:25;7.03;;;3.30;;
52974;SDS011;38839;45.186;5.720;2023-08-24T04:00:50;5.53;;;2.88;;
52974;SDS011;38839;45.186;5.720;2023-08-24T04:03:16;5.95;;;2.58;;
52974;SDS011;38839;45.186;5.720;2023-08-24T04:05:41;7.70;;;2.67;;
52974;SDS011;38839;45.186;5.720;2023-08-24T04:08:07;6.47;;;3.10;;
52974;SDS011;38839;45.186;5.720;2023-08-24T04:10:32;5.85;;;2.92;;
52974;SDS011;38839;45.186;5.720;2023-08-24T04:12:58;6.45;;;3.10;;
52974;SDS011;38839;45.186;5.720;2023-08-24T04:15:23;5.95;;;2.83;;
52974;SDS011;38839;45.186;5.720;2023-08-24T04:17:49;6.22;;;3.50;;
52974;SDS011;38839;45.186;5.720;2023-08-24T04:20:15;11.57;;;3.10;;
52974;SDS011;38839;45.186;5.720;2023-08-24T04:22:41;4.93;;;2.95;;
52974;SDS011;38839;45.186;5.720;2023-08-24T04:25:06;5.90;;;2.80;;
52974;SDS011;38839;45.186;5.720;2023-08-24T04:27:32;6.03;;;2.67;;
52974;SDS011;38839;45.186;5.720;2023-08-24T04:29:58;6.85;;;2.83;;
52974;SDS011;38839;45.186;5.720;2023-08-24T04:32:23;8.82;;;3.10;;
52974;SDS011;38839;45.186;5.720;2023-08-24T04:34:49;7.07;;;3.10;;
52974;SDS011;38839;45.186;5.720;2023-08-24T04:37:14;8.52;;;3.28;;
52974;SDS011;38839;45.186;5.720;2023-08-24T04:39:40;10.93;;;3.20;;
52974;SDS011;38839;45.186;5.720;2023-08-24T04:42:05;6.80;;;3.22;;
52974;SDS011;38839;45.186;5.720;2023-08-24T04:44:31;4.60;;;3.13;;
52974;SDS011;38839;45.186;5.720;2023-08-24T04:46:57;8.85;;;3.17;;
52974;SDS011;38839;45.186;5.720;2023-08-24T04:49:22;8.15;;;3.65;;
52974;SDS011;38839;45.186;5.720;2023-08-24T04:51:47;6.65;;;3.28;;
52974;SDS011;38839;45.186;5.720;2023-08-24T04:54:13;9.70;;;3.13;;
52974;SDS011;38839;45.186;5.720;2023-08-24T04:56:38;9.05;;;3.67;;
52974;SDS011;38839;45.186;5.720;2023-08-24T04:59:04;5.00;;;2.83;;
52974;SDS011;38839;45.186;5.720;2023-08-24T05:01:29;12.18;;;3.20;;
52974;SDS011;38839;45.186;5.720;2023-08-24T05:03:57;7.00;;;3.40;;
52974;SDS011;38839;45.186;5.720;2023-08-24T05:06:23;9.07;;;2.95;;
52974;SDS011;38839;45.186;5.720;2023-08-24T05:08:48;7.90;;;3.03;;
52974;SDS011;38839;45.186;5.720;2023-08-24T05:11:16;6.57;;;2.80;;
52974;SDS011;38839;45.186;5.720;2023-08-24T05:13:43;7.88;;;3.10;;
52974;SDS011;38839;45.186;5.720;2023-08-24T05:16:09;10.13;;;3.13;;
52974;SDS011;38839;45.186;5.720;2023-08-24T05:18:35;6.07;;;3.05;;
52974;SDS011;38839;45.186;5.720;2023-08-24T05:21:04;11.90;;;3.60;;
52974;SDS011;38839;45.186;5.720;2023-08-24T05:23:30;6.47;;;3.15;;
52974;SDS011;38839;45.186;5.720;2023-08-24T05:25:59;5.95;;;2.83;;
52974;SDS011;38839;45.186;5.720;2023-08-24T05:28:25;7.38;;;3.33;;
52974;SDS011;38839;45.186;5.720;2023-08-24T05:30:51;7.82;;;3.08;;
52974;SDS011;38839;45.186;5.720;2023-08-24T05:33:17;7.88;;;3.92;;
52974;SDS011;38839;45.186;5.720;2023-08-24T05:35:43;6.55;;;3.40;;
52974;SDS011;38839;45.186;5.720;2023-08-24T05:38:08;6.75;;;3.40;;
52974;SDS011;38839;45.186;5.720;2023-08-24T05:40:34;8.98;;;3.63;;
52974;SDS011;38839;45.186;5.720;2023-08-24T05:42:59;8.25;;;3.63;;
52974;SDS011;38839;45.186;5.720;2023-08-24T05:45:25;7.35;;;3.25;;
52974;SDS011;38839;45.186;5.720;2023-08-24T05:47:50;7.57;;;3.40;;
52974;SDS011;38839;45.186;5.720;2023-08-24T05:50:15;10.65;;;3.50;;
52974;SDS011;38839;45.186;5.720;2023-08-24T05:52:41;5.10;;;3.03;;
52974;SDS011;38839;45.186;5.720;2023-08-24T05:55:06;8.75;;;3.47;;
52974;SDS011;38839;45.186;5.720;2023-08-24T05:57:32;8.98;;;3.63;;
52974;SDS011;38839;45.186;5.720;2023-08-24T05:59:57;8.35;;;3.42;;
52974;SDS011;38839;45.186;5.720;2023-08-24T06:02:23;6.70;;;3.13;;
52974;SDS011;38839;45.186;5.720;2023-08-24T06:04:48;7.40;;;3.25;;
52974;SDS011;38839;45.186;5.720;2023-08-24T06:07:15;7.53;;;3.42;;
52974;SDS011;38839;45.186;5.720;2023-08-24T06:09:42;6.45;;;2.85;;
52974;SDS011;38839;45.186;5.720;2023-08-24T06:12:07;11.10;;;3.15;;
52974;SDS011;38839;45.186;5.720;2023-08-24T06:14:33;5.20;;;3.40;;
52974;SDS011;38839;45.186;5.720;2023-08-24T06:16:58;15.60;;;4.35;;
52974;SDS011;38839;45.186;5.720;2023-08-24T06:19:23;6.68;;;3.00;;
52974;SDS011;38839;45.186;5.720;2023-08-24T06:21:49;8.32;;;3.30;;
52974;SDS011;38839;45.186;5.720;2023-08-24T06:24:14;7.50;;;3.53;;
52974;SDS011;38839;45.186;5.720;2023-08-24T06:26:40;10.18;;;3.85;;
52974;SDS011;38839;45.186;5.720;2023-08-24T06:29:05;6.15;;;3.80;;
52974;SDS011;38839;45.186;5.720;2023-08-24T06:31:30;8.00;;;3.30;;
52974;SDS011;38839;45.186;5.720;2023-08-24T06:33:58;11.27;;;3.53;;
52974;SDS011;38839;45.186;5.720;2023-08-24T06:36:23;14.60;;;3.97;;
52974;SDS011;38839;45.186;5.720;2023-08-24T06:38:49;4.38;;;3.08;;
52974;SDS011;38839;45.186;5.720;2023-08-24T06:41:14;15.23;;;4.90;;
52974;SDS011;38839;45.186;5.720;2023-08-24T06:43:40;8.30;;;3.45;;
52974;SDS011;38839;45.186;5.720;2023-08-24T06:46:05;11.40;;;3.55;;
52974;SDS011;38839;45.186;5.720;2023-08-24T06:51:00;9.77;;;3.45;;
52974;SDS011;38839;45.186;5.720;2023-08-24T06:53:25;6.18;;;3.50;;
52974;SDS011;38839;45.186;5.720;2023-08-24T06:55:54;8.98;;;3.20;;
52974;SDS011;38839;45.186;5.720;2023-08-24T06:58:20;5.22;;;3.33;;
52974;SDS011;38839;45.186;5.720;2023-08-24T07:00:46;8.55;;;3.15;;
52974;SDS011;38839;45.186;5.720;2023-08-24T07:03:11;8.95;;;3.22;;
52974;SDS011;38839;45.186;5.720;2023-08-24T07:05:37;9.77;;;3.67;;
52974;SDS011;38839;45.186;5.720;2023-08-24T07:08:02;9.30;;;3.33;;
52974;SDS011;38839;45.186;5.720;2023-08-24T07:10:28;6.63;;;3.53;;
52974;SDS011;38839;45.186;5.720;2023-08-24T07:12:54;8.50;;;3.60;;
52974;SDS011;38839;45.186;5.720;2023-08-24T07:15:19;6.72;;;3.67;;
52974;SDS011;38839;45.186;5.720;2023-08-24T07:17:44;8.68;;;3.60;;
52974;SDS011;38839;45.186;5.720;2023-08-24T07:20:10;10.55;;;4.28;;
52974;SDS011;38839;45.186;5.720;2023-08-24T07:22:38;7.95;;;3.50;;
52974;SDS011;38839;45.186;5.720;2023-08-24T07:25:04;5.18;;;3.50;;
52974;SDS011;38839;45.186;5.720;2023-08-24T07:27:34;7.25;;;3.35;;
52974;SDS011;38839;45.186;5.720;2023-08-24T07:30:00;8.57;;;3.22;;
52974;SDS011;38839;45.186;5.720;2023-08-24T07:32:28;9.93;;;3.50;;
52974;SDS011;38839;45.186;5.720;2023-08-24T07:34:54;13.00;;;4.22;;
52974;SDS011;38839;45.186;5.720;2023-08-24T07:37:22;8.98;;;3.42;;
52974;SDS011;38839;45.186;5.720;2023-08-24T07:39:47;10.60;;;3.28;;
52974;SDS011;38839;45.186;5.720;2023-08-24T07:42:13;6.50;;;3.30;;
52974;SDS011;38839;45.186;5.720;2023-08-24T07:44:38;12.63;;;4.40;;
52974;SDS011;38839;45.186;5.720;2023-08-24T07:47:03;10.05;;;4.05;;
52974;SDS011;38839;45.186;5.720;2023-08-24T07:49:29;9.20;;;3.17;;
52974;SDS011;38839;45.186;5.720;2023-08-24T07:51:54;7.57;;;3.55;;
52974;SDS011;38839;45.186;5.720;2023-08-24T07:54:22;6.32;;;3.40;;
52974;SDS011;38839;45.186;5.720;2023-08-24T07:56:47;14.90;;;4.05;;
52974;SDS011;38839;45.186;5.720;2023-08-24T07:59:13;7.00;;;3.55;;
52974;SDS011;38839;45.186;5.720;2023-08-24T08:01:38;7.53;;;3.20;;
52974;SDS011;38839;45.186;5.720;2023-08-24T08:04:03;7.35;;;3.67;;
52974;SDS011;38839;45.186;5.720;2023-08-24T08:06:29;11.00;;;3.63;;
52974;SDS011;38839;45.186;5.720;2023-08-24T08:08:54;8.57;;;4.07;;
52974;SDS011;38839;45.186;5.720;2023-08-24T08:11:21;7.47;;;3.85;;
52974;SDS011;38839;45.186;5.720;2023-08-24T08:13:46;8.82;;;3.60;;
52974;SDS011;38839;45.186;5.720;2023-08-24T08:16:12;6.53;;;3.28;;
52974;SDS011;38839;45.186;5.720;2023-08-24T08:18:38;7.70;;;3.40;;
52974;SDS011;38839;45.186;5.720;2023-08-24T08:21:10;9.82;;;3.10;;
52974;SDS011;38839;45.186;5.720;2023-08-24T08:23:39;10.10;;;3.17;;
52974;SDS011;38839;45.186;5.720;2023-08-24T08:26:05;8.07;;;3.80;;
52974;SDS011;38839;45.186;5.720;2023-08-24T08:28:30;11.65;;;3.63;;
52974;SDS011;38839;45.186;5.720;2023-08-24T08:30:58;5.63;;;3.20;;
52974;SDS011;38839;45.186;5.720;2023-08-24T08:33:24;9.18;;;3.28;;
52974;SDS011;38839;45.186;5.720;2023-08-24T08:35:49;8.38;;;3.67;;
52974;SDS011;38839;45.186;5.720;2023-08-24T08:38:14;11.27;;;3.30;;
52974;SDS011;38839;45.186;5.720;2023-08-24T08:40:40;8.30;;;3.53;;
52974;SDS011;38839;45.186;5.720;2023-08-24T08:43:06;12.63;;;3.40;;
52974;SDS011;38839;45.186;5.720;2023-08-24T08:45:32;10.07;;;3.78;;
52974;SDS011;38839;45.186;5.720;2023-08-24T08:47:58;7.75;;;3.42;;
52974;SDS011;38839;45.186;5.720;2023-08-24T08:50:25;7.55;;;3.30;;
52974;SDS011;38839;45.186;5.720;2023-08-24T08:52:50;8.35;;;3.83;;
52974;SDS011;38839;45.186;5.720;2023-08-24T08:55:16;9.32;;;3.35;;
52974;SDS011;38839;45.186;5.720;2023-08-24T08:57:42;12.07;;;4.07;;
52974;SDS011;38839;45.186;5.720;2023-08-24T09:00:09;15.32;;;3.60;;
52974;SDS011;38839;45.186;5.720;2023-08-24T09:02:38;7.60;;;3.70;;
52974;SDS011;38839;45.186;5.720;2023-08-24T09:05:05;10.95;;;3.70;;
52974;SDS011;38839;45.186;5.720;2023-08-24T09:07:32;7.30;;;3.72;;
52974;SDS011;38839;45.186;5.720;2023-08-24T09:09:59;11.00;;;3.47;;
52974;SDS011;38839;45.186;5.720;2023-08-24T09:12:24;7.30;;;3.70;;
52974;SDS011;38839;45.186;5.720;2023-08-24T09:14:50;9.48;;;3.95;;
52974;SDS011;38839;45.186;5.720;2023-08-24T09:17:22;10.68;;;3.60;;
52974;SDS011;38839;45.186;5.720;2023-08-24T09:19:49;9.55;;;3.50;;
52974;SDS011;38839;45.186;5.720;2023-08-24T09:22:16;8.55;;;3.95;;
52974;SDS011;38839;45.186;5.720;2023-08-24T09:24:41;15.45;;;4.00;;
52974;SDS011;38839;45.186;5.720;2023-08-24T09:27:17;7.47;;;3.53;;
52974;SDS011;38839;45.186;5.720;2023-08-24T09:29:50;7.95;;;3.67;;
52974;SDS011;38839;45.186;5.720;2023-08-24T09:32:29;13.80;;;3.65;;
52974;SDS011;38839;45.186;5.720;2023-08-24T09:35:01;8.00;;;3.58;;
52974;SDS011;38839;45.186;5.720;2023-08-24T09:37:31;8.82;;;3.60;;
52974;SDS011;38839;45.186;5.720;2023-08-24T09:40:02;8.93;;;3.25;;
52974;SDS011;38839;45.186;5.720;2023-08-24T09:42:34;6.85;;;3.47;;
52974;SDS011;38839;45.186;5.720;2023-08-24T09:45:03;7.35;;;3.90;;
52974;SDS011;38839;45.186;5.720;2023-08-24T09:47:33;7.20;;;3.13;;
52974;SDS011;38839;45.186;5.720;2023-08-24T09:49:59;7.55;;;3.38;;
52974;SDS011;38839;45.186;5.720;2023-08-24T17:12:05;8.43;;;3.60;;
52974;SDS011;38839;45.186;5.720;2023-08-24T17:14:31;4.47;;;3.30;;
52974;SDS011;38839;45.186;5.720;2023-08-24T17:16:56;5.97;;;3.63;;
52974;SDS011;38839;45.186;5.720;2023-08-24T17:19:22;4.75;;;3.30;;
52974;SDS011;38839;45.186;5.720;2023-08-24T17:21:47;4.50;;;3.40;;
52974;SDS011;38839;45.186;5.720;2023-08-24T17:24:12;5.95;;;4.13;;
52974;SDS011;38839;45.186;5.720;2023-08-24T17:26:38;6.85;;;4.10;;
52974;SDS011;38839;45.186;5.720;2023-08-24T17:29:03;4.22;;;3.50;;
52974;SDS011;38839;45.186;5.720;2023-08-24T17:31:29;4.20;;;3.77;;
52974;SDS011;38839;45.186;5.720;2023-08-24T17:33:54;5.32;;;3.55;;
52974;SDS011;38839;45.186;5.720;2023-08-24T17:36:19;7.82;;;4.00;;
52974;SDS011;38839;45.186;5.720;2023-08-24T17:38:45;6.47;;;3.80;;
52974;SDS011;38839;45.186;5.720;2023-08-24T17:41:10;6.85;;;4.20;;
52974;SDS011;38839;45.186;5.720;2023-08-24T17:43:36;5.57;;;4.13;;
52974;SDS011;38839;45.186;5.720;2023-08-24T17:46:05;5.28;;;4.10;;
52974;SDS011;38839;45.186;5.720;2023-08-24T17:48:31;5.32;;;3.90;;
52974;SDS011;38839;45.186;5.720;2023-08-24T17:50:58;6.30;;;3.53;;
52974;SDS011;38839;45.186;5.720;2023-08-24T17:53:24;7.72;;;4.20;;
52974;SDS011;38839;45.186;5.720;2023-08-24T17:55:54;5.65;;;3.83;;
52974;SDS011;38839;45.186;5.720;2023-08-24T17:58:21;5.03;;;4.00;;
52974;SDS011;38839;45.186;5.720;2023-08-24T18:00:47;7.63;;;4.40;;
52974;SDS011;38839;45.186;5.720;2023-08-24T18:03:13;4.63;;;4.00;;
52974;SDS011;38839;45.186;5.720;2023-08-24T18:05:39;6.97;;;4.07;;
52974;SDS011;38839;45.186;5.720;2023-08-24T18:08:04;5.43;;;4.03;;
52974;SDS011;38839;45.186;5.720;2023-08-24T18:10:30;5.53;;;3.80;;
52974;SDS011;38839;45.186;5.720;2023-08-24T18:12:55;7.70;;;4.82;;
52974;SDS011;38839;45.186;5.720;2023-08-24T18:15:23;5.93;;;4.00;;
52974;SDS011;38839;45.186;5.720;2023-08-24T18:17:49;4.35;;;3.95;;
52974;SDS011;38839;45.186;5.720;2023-08-24T18:20:15;6.13;;;4.45;;
52974;SDS011;38839;45.186;5.720;2023-08-24T18:22:41;5.15;;;4.22;;
52974;SDS011;38839;45.186;5.720;2023-08-24T18:25:07;5.75;;;4.25;;
52974;SDS011;38839;45.186;5.720;2023-08-24T18:27:32;6.90;;;4.07;;
52974;SDS011;38839;45.186;5.720;2023-08-24T18:29:58;8.30;;;4.47;;
52974;SDS011;38839;45.186;5.720;2023-08-24T18:32:23;6.20;;;3.85;;
52974;SDS011;38839;45.186;5.720;2023-08-24T18:34:48;6.47;;;3.75;;
52974;SDS011;38839;45.186;5.720;2023-08-24T18:37:14;7.30;;;4.03;;
52974;SDS011;38839;45.186;5.720;2023-08-24T18:39:40;4.32;;;3.90;;
52974;SDS011;38839;45.186;5.720;2023-08-24T18:42:07;4.18;;;3.78;;
52974;SDS011;38839;45.186;5.720;2023-08-24T18:44:33;7.43;;;4.22;;
52974;SDS011;38839;45.186;5.720;2023-08-24T18:46:58;7.25;;;3.97;;
52974;SDS011;38839;45.186;5.720;2023-08-24T18:49:23;5.93;;;3.97;;
52974;SDS011;38839;45.186;5.720;2023-08-24T18:51:49;5.07;;;3.83;;
52974;SDS011;38839;45.186;5.720;2023-08-24T18:54:16;9.30;;;4.05;;
52974;SDS011;38839;45.186;5.720;2023-08-24T18:56:42;6.38;;;4.15;;
52974;SDS011;38839;45.186;5.720;2023-08-24T18:59:07;6.32;;;4.40;;
52974;SDS011;38839;45.186;5.720;2023-08-24T19:01:33;4.70;;;4.18;;
52974;SDS011;38839;45.186;5.720;2023-08-24T19:04:01;6.82;;;4.50;;
52974;SDS011;38839;45.186;5.720;2023-08-24T19:06:27;3.92;;;3.53;;
52974;SDS011;38839;45.186;5.720;2023-08-24T19:08:52;6.90;;;4.63;;
52974;SDS011;38839;45.186;5.720;2023-08-24T19:11:17;7.17;;;4.30;;
52974;SDS011;38839;45.186;5.720;2023-08-24T19:13:43;7.57;;;4.50;;
52974;SDS011;38839;45.186;5.720;2023-08-24T19:16:09;5.80;;;3.83;;
52974;SDS011;38839;45.186;5.720;2023-08-24T19:18:35;5.75;;;4.10;;
52974;SDS011;38839;45.186;5.720;2023-08-24T19:21:00;5.43;;;4.30;;
52974;SDS011;38839;45.186;5.720;2023-08-24T19:23:28;5.63;;;4.03;;
52974;SDS011;38839;45.186;5.720;2023-08-24T19:25:54;5.10;;;3.83;;
52974;SDS011;38839;45.186;5.720;2023-08-24T19:28:19;9.38;;;4.45;;
52974;SDS011;38839;45.186;5.720;2023-08-24T19:30:48;7.50;;;4.35;;
52974;SDS011;38839;45.186;5.720;2023-08-24T19:33:14;7.47;;;3.95;;
52974;SDS011;38839;45.186;5.720;2023-08-24T19:35:40;7.10;;;4.43;;
52974;SDS011;38839;45.186;5.720;2023-08-24T19:38:05;12.20;;;4.70;;
52974;SDS011;38839;45.186;5.720;2023-08-24T19:40:34;7.72;;;3.75;;
52974;SDS011;38839;45.186;5.720;2023-08-24T19:43:00;7.72;;;4.22;;
52974;SDS011;38839;45.186;5.720;2023-08-24T19:45:25;7.57;;;4.33;;
52974;SDS011;38839;45.186;5.720;2023-08-24T19:47:51;5.38;;;4.78;;
52974;SDS011;38839;45.186;5.720;2023-08-24T19:50:16;7.43;;;4.63;;
52974;SDS011;38839;45.186;5.720;2023-08-24T19:52:41;6.35;;;4.50;;
52974;SDS011;38839;45.186;5.720;2023-08-24T19:55:08;6.03;;;3.70;;
52974;SDS011;38839;45.186;5.720;2023-08-24T19:57:35;5.40;;;4.10;;
52974;SDS011;38839;45.186;5.720;2023-08-24T20:00:01;4.80;;;4.18;;
52974;SDS011;38839;45.186;5.720;2023-08-24T20:02:26;6.07;;;4.25;;
52974;SDS011;38839;45.186;5.720;2023-08-24T20:04:51;6.43;;;4.30;;
52974;SDS011;38839;45.186;5.720;2023-08-24T20:07:17;4.72;;;4.30;;
52974;SDS011;38839;45.186;5.720;2023-08-24T20:09:42;7.53;;;4.63;;
52974;SDS011;38839;45.186;5.720;2023-08-24T20:12:07;7.00;;;4.10;;
52974;SDS011;38839;45.186;5.720;2023-08-24T20:14:33;7.05;;;4.20;;
52974;SDS011;38839;45.186;5.720;2023-08-24T20:16:58;8.15;;;3.78;;
52974;SDS011;38839;45.186;5.720;2023-08-24T20:19:23;5.65;;;4.60;;
52974;SDS011;38839;45.186;5.720;2023-08-24T20:21:49;5.38;;;4.15;;
52974;SDS011;38839;45.186;5.720;2023-08-24T20:24:15;5.03;;;3.17;;
52974;SDS011;38839;45.186;5.720;2023-08-24T20:26:41;3.55;;;3.25;;
52974;SDS011;38839;45.186;5.720;2023-08-24T20:29:06;5.00;;;3.35;;
52974;SDS011;38839;45.186;5.720;2023-08-24T20:31:32;7.30;;;3.60;;
52974;SDS011;38839;45.186;5.720;2023-08-24T20:33:57;4.10;;;3.22;;
52974;SDS011;38839;45.186;5.720;2023-08-24T20:36:22;4.75;;;3.20;;
52974;SDS011;38839;45.186;5.720;2023-08-24T20:38:48;4.18;;;3.42;;
52974;SDS011;38839;45.186;5.720;2023-08-24T20:41:13;5.97;;;3.47;;
52974;SDS011;38839;45.186;5.720;2023-08-24T20:43:39;5.15;;;3.10;;
52974;SDS011;38839;45.186;5.720;2023-08-24T20:46:04;3.67;;;3.17;;
52974;SDS011;38839;45.186;5.720;2023-08-24T20:48:30;4.38;;;3.55;;
52974;SDS011;38839;45.186;5.720;2023-08-24T20:50:55;4.95;;;3.10;;
52974;SDS011;38839;45.186;5.720;2023-08-24T20:53:24;5.10;;;3.30;;
52974;SDS011;38839;45.186;5.720;2023-08-24T20:55:50;3.88;;;3.50;;
52974;SDS011;38839;45.186;5.720;2023-08-24T20:58:16;6.35;;;4.03;;
52974;SDS011;38839;45.186;5.720;2023-08-24T21:00:41;5.35;;;3.92;;
52974;SDS011;38839;45.186;5.720;2023-08-24T21:03:07;7.10;;;4.32;;
52974;SDS011;38839;45.186;5.720;2023-08-24T21:05:32;5.43;;;4.85;;
52974;SDS011;38839;45.186;5.720;2023-08-24T21:07:57;10.20;;;4.88;;
52974;SDS011;38839;45.186;5.720;2023-08-24T21:10:23;5.75;;;4.50;;
52974;SDS011;38839;45.186;5.720;2023-08-24T21:12:49;7.38;;;4.05;;
52974;SDS011;38839;45.186;5.720;2023-08-24T21:15:14;4.10;;;3.67;;
52974;SDS011;38839;45.186;5.720;2023-08-24T21:17:39;4.07;;;3.40;;
52974;SDS011;38839;45.186;5.720;2023-08-24T21:20:05;4.07;;;3.60;;
52974;SDS011;38839;45.186;5.720;2023-08-24T21:22:31;5.50;;;4.00;;
52974;SDS011;38839;45.186;5.720;2023-08-24T21:24:57;4.18;;;3.75;;
52974;SDS011;38839;45.186;5.720;2023-08-24T21:27:26;5.15;;;3.90;;
52974;SDS011;38839;45.186;5.720;2023-08-24T21:29:52;4.13;;;3.63;;
52974;SDS011;38839;45.186;5.720;2023-08-24T21:32:17;6.80;;;4.13;;
52974;SDS011;38839;45.186;5.720;2023-08-24T21:34:43;10.50;;;5.07;;
52974;SDS011;38839;45.186;5.720;2023-08-24T21:37:08;5.10;;;3.85;;
52974;SDS011;38839;45.186;5.720;2023-08-24T21:39:36;5.22;;;3.85;;
52974;SDS011;38839;45.186;5.720;2023-08-24T21:42:01;4.63;;;4.20;;
52974;SDS011;38839;45.186;5.720;2023-08-24T21:44:27;7.97;;;4.70;;
52974;SDS011;38839;45.186;5.720;2023-08-24T21:46:52;5.60;;;4.43;;
52974;SDS011;38839;45.186;5.720;2023-08-24T21:49:17;7.28;;;4.60;;
52974;SDS011;38839;45.186;5.720;2023-08-24T21:51:43;5.03;;;4.07;;
52974;SDS011;38839;45.186;5.720;2023-08-24T21:54:08;7.80;;;4.25;;
52974;SDS011;38839;45.186;5.720;2023-08-24T21:56:34;6.55;;;4.18;;
52974;SDS011;38839;45.186;5.720;2023-08-24T21:58:59;5.53;;;4.20;;
52974;SDS011;38839;45.186;5.720;2023-08-24T22:01:24;6.45;;;3.80;;
52974;SDS011;38839;45.186;5.720;2023-08-24T22:03:50;6.95;;;3.90;;
52974;SDS011;38839;45.186;5.720;2023-08-24T22:06:15;5.45;;;4.25;;
52974;SDS011;38839;45.186;5.720;2023-08-24T22:08:41;5.68;;;3.90;;